Time;durP1;ratioP1;P1;durP2;ratioP2;P2;SDS_P1;SDS_P2;PMS_P1;PMS_P2;Temp;Humidity;BMP_temperature;BMP_pressure;BME280_temperature;BME280_humidity;BME280_pressure;Samples;Min_cycle;Max_cycle;Signal;HPM_P1;HPM_P2
2021/06/03 00:00:53;;;;;;;8.95;3.17;;;;;;;23.33;42.20;100328.13;4479197;32;33935;-67
2021/06/03 00:03:23;;;;;;;8.95;3.40;;;;;;;23.35;42.14;100334.19;4484510;32;33832;-67
2021/06/03 00:05:52;;;;;;;9.57;4.00;;;;;;;23.33;42.08;100334.41;4485112;32;33854;-67
2021/06/03 00:08:21;;;;;;;7.68;3.83;;;;;;;23.31;42.17;100333.75;4483889;32;33813;-67
2021/06/03 00:10:52;;;;;;;10.93;4.12;;;;;;;23.31;42.08;100338.37;4483585;32;33588;-68
2021/06/03 00:13:20;;;;;;;10.95;4.00;;;;;;;23.29;42.15;100335.03;4485008;32;33342;-67
2021/06/03 00:15:48;;;;;;;6.43;3.50;;;;;;;23.29;42.08;100329.59;4484900;32;33878;-68
2021/06/03 00:18:16;;;;;;;9.05;4.03;;;;;;;23.29;42.02;100335.03;4485049;32;33861;-67
2021/06/03 00:20:43;;;;;;;8.32;4.25;;;;;;;23.28;41.97;100339.66;4484995;32;33733;-67
2021/06/03 00:23:11;;;;;;;8.40;4.12;;;;;;;23.28;41.96;100334.19;4484933;32;33973;-67
2021/06/03 00:25:39;;;;;;;9.23;4.00;;;;;;;23.27;41.94;100343.44;4484731;32;34403;-67
2021/06/03 00:28:06;;;;;;;11.25;4.28;;;;;;;23.27;41.99;100345.28;4484857;32;34686;-67
2021/06/03 00:30:34;;;;;;;9.40;4.18;;;;;;;23.26;41.99;100344.44;4483532;32;34812;-67
2021/06/03 00:33:02;;;;;;;9.10;4.07;;;;;;;23.27;41.96;100351.59;4484987;32;33251;-68
2021/06/03 00:35:30;;;;;;;9.30;4.43;;;;;;;23.27;41.85;100350.72;4484938;32;33916;-68
2021/06/03 00:37:57;;;;;;;8.32;4.12;;;;;;;23.26;41.84;100343.62;4484711;32;33832;-67
2021/06/03 00:40:25;;;;;;;9.75;4.75;;;;;;;23.26;41.79;100349.91;4483806;32;33431;-67
2021/06/03 00:42:52;;;;;;;9.38;4.30;;;;;;;23.26;41.84;100349.06;4483563;32;33179;-68
2021/06/03 00:45:27;;;;;;;8.93;4.57;;;;;;;23.25;41.75;100350.94;4483464;32;33667;-68
2021/06/03 00:47:55;;;;;;;9.68;4.55;;;;;;;23.26;41.78;100346.34;4483501;32;34013;-67
2021/06/03 00:50:36;;;;;;;11.32;4.75;;;;;;;23.26;41.84;100351.78;4470863;32;34815;-67
2021/06/03 00:53:05;;;;;;;9.00;4.78;;;;;;;23.24;41.81;100349.28;4483825;32;33569;-68
2021/06/03 00:55:34;;;;;;;7.05;4.37;;;;;;;23.24;41.59;100351.19;4484684;32;34733;-67
2021/06/03 00:58:02;;;;;;;8.75;4.85;;;;;;;23.23;41.69;100355.78;4484844;32;33580;-67
2021/06/03 01:00:30;;;;;;;10.13;4.97;;;;;;;23.23;41.55;100353.06;4483573;32;34331;-67
2021/06/03 01:03:01;;;;;;;9.35;4.62;;;;;;;23.23;41.52;100352.22;4483748;32;33343;-67
2021/06/03 01:05:40;;;;;;;8.48;4.32;;;;;;;23.22;41.49;100356.81;4483019;32;33739;-69
2021/06/03 01:08:14;;;;;;;10.02;5.40;;;;;;;23.23;41.49;100361.22;4471123;32;33850;-68
2021/06/03 01:10:58;;;;;;;10.15;4.97;;;;;;;23.22;41.60;100364.16;4482988;32;34598;-69
2021/06/03 01:13:39;;;;;;;8.90;4.87;;;;;;;23.23;41.72;100360.41;4471506;32;33141;-68
2021/06/03 01:16:23;;;;;;;11.00;5.43;;;;;;;23.22;41.82;100361.41;4472286;32;34263;-68
2021/06/03 01:18:52;;;;;;;10.05;5.05;;;;;;;23.21;41.75;100354.31;4483371;32;34791;-68
2021/06/03 01:21:28;;;;;;;8.45;4.65;;;;;;;23.19;41.72;100359.16;4483547;32;33784;-69
2021/06/03 01:23:58;;;;;;;8.38;5.03;;;;;;;23.19;41.80;100359.16;4484532;32;33218;-69
2021/06/03 01:26:25;;;;;;;8.38;5.30;;;;;;;23.19;41.79;100368.16;4484382;32;33871;-69
2021/06/03 01:28:54;;;;;;;8.75;5.50;;;;;;;23.21;41.75;100362.47;4470739;32;34768;-69
2021/06/03 01:31:21;;;;;;;7.85;4.78;;;;;;;23.19;41.79;100370.03;4483446;32;34770;-68
2021/06/03 01:33:49;;;;;;;9.98;5.37;;;;;;;23.19;41.80;100372.75;4470502;32;33404;-68
2021/06/03 01:36:17;;;;;;;11.02;5.15;;;;;;;23.19;41.77;100370.88;4483292;32;34521;-69
2021/06/03 01:38:45;;;;;;;8.77;5.47;;;;;;;23.19;41.76;100367.31;4483215;32;33941;-69
2021/06/03 01:41:13;;;;;;;7.87;4.97;;;;;;;23.19;41.70;100376.31;4483047;32;34039;-69
2021/06/03 01:43:42;;;;;;;11.60;5.45;;;;;;;23.18;41.65;100371.91;4484386;32;33593;-69
2021/06/03 01:46:10;;;;;;;11.70;5.82;;;;;;;23.17;41.74;100376.53;4484673;31;33797;-69
2021/06/03 01:48:39;;;;;;;8.60;5.12;;;;;;;23.20;41.72;100374.41;4470177;32;33927;-69
2021/06/03 01:51:09;;;;;;;11.23;5.87;;;;;;;23.17;41.70;100376.53;4483044;32;33787;-68
2021/06/03 01:53:37;;;;;;;8.65;5.35;;;;;;;23.16;41.66;100374.84;4483152;32;33359;-68
2021/06/03 01:56:10;;;;;;;10.85;6.12;;;;;;;23.17;41.63;100371.09;4470338;32;33941;-68
2021/06/03 01:58:38;;;;;;;9.80;5.53;;;;;;;23.17;41.66;100371.09;4484527;32;33594;-68
2021/06/03 02:01:06;;;;;;;9.82;5.80;;;;;;;23.19;41.56;100372.75;4482842;32;33819;-69
2021/06/03 02:03:34;;;;;;;10.88;6.37;;;;;;;23.17;41.55;100379.25;4470299;32;34113;-69
2021/06/03 02:06:03;;;;;;;8.68;5.62;;;;;;;23.17;41.56;100376.53;4483098;32;33771;-69
2021/06/03 02:08:31;;;;;;;11.48;6.18;;;;;;;23.15;41.53;100378.59;4483092;32;34908;-68
2021/06/03 02:11:00;;;;;;;11.70;6.65;;;;;;;23.16;41.48;100376.72;4480623;32;83859;-69
2021/06/03 02:13:37;;;;;;;14.23;6.37;;;;;;;23.17;41.46;100383.84;4482827;32;34243;-69
2021/06/03 02:16:08;;;;;;;9.45;6.12;;;;;;;23.17;41.43;100384.69;4482976;32;34618;-68
2021/06/03 02:19:01;;;;;;;9.63;6.07;;;;;;;23.16;41.37;100376.72;4482855;32;33955;-69
2021/06/03 02:21:29;;;;;;;15.65;6.93;;;;;;;23.18;41.27;100380.09;4478842;31;34352;-69
2021/06/03 02:23:57;;;;;;;12.37;6.28;;;;;;;23.15;41.06;100385.94;4456759;32;33029;-68
2021/06/03 02:26:25;;;;;;;13.52;6.40;;;;;;;23.15;41.25;100383.22;4482178;32;33876;-69
2021/06/03 02:28:58;;;;;;;13.75;6.45;;;;;;;23.14;41.31;100387.00;4483101;32;33877;-69
2021/06/03 02:31:26;;;;;;;10.70;6.55;;;;;;;23.14;41.36;100387.00;4482753;32;33927;-68
2021/06/03 02:33:55;;;;;;;14.30;7.10;;;;;;;23.14;41.34;100381.56;4469965;32;33550;-69
2021/06/03 02:36:22;;;;;;;13.77;7.68;;;;;;;23.14;41.38;100387.84;4470046;32;33918;-69
2021/06/03 02:38:50;;;;;;;14.35;7.05;;;;;;;23.14;41.34;100390.56;4469999;32;33594;-68
2021/06/03 02:41:18;;;;;;;13.93;7.95;;;;;;;23.13;41.39;100380.72;4483956;32;33724;-69
2021/06/03 02:43:47;;;;;;;13.75;7.47;;;;;;;23.12;41.24;100383.63;4484048;32;33324;-69
2021/06/03 02:46:17;;;;;;;12.30;6.85;;;;;;;23.11;41.25;100381.97;4482675;32;33844;-69
2021/06/03 02:48:45;;;;;;;16.83;7.22;;;;;;;23.11;41.25;100388.25;4483057;32;34892;-69
2021/06/03 02:51:13;;;;;;;14.32;7.35;;;;;;;23.12;41.20;100395.34;4484151;32;33690;-69
2021/06/03 02:53:43;;;;;;;13.73;7.15;;;;;;;23.12;41.26;100394.53;4469611;32;32627;-68
2021/06/03 02:56:13;;;;;;;15.10;7.10;;;;;;;23.11;41.23;100395.56;4483758;32;33352;-69
2021/06/03 02:58:41;;;;;;;12.50;7.68;;;;;;;23.11;41.17;100403.75;4469891;32;33805;-69
2021/06/03 03:01:10;;;;;;;12.52;7.50;;;;;;;23.09;40.90;100403.13;4484011;32;33743;-69
2021/06/03 03:03:38;;;;;;;15.50;7.45;;;;;;;23.07;40.90;100402.47;4483834;32;33330;-69
2021/06/03 03:06:05;;;;;;;13.95;7.07;;;;;;;23.08;41.29;100409.59;4483821;32;34581;-69
2021/06/03 03:08:33;;;;;;;12.48;7.05;;;;;;;23.09;41.24;100403.13;4483907;32;34927;-69
2021/06/03 03:11:02;;;;;;;12.50;7.18;;;;;;;23.08;41.13;100406.87;4483583;32;33805;-69
2021/06/03 03:13:30;;;;;;;13.30;7.30;;;;;;;23.07;41.14;100411.47;4483817;32;34753;-68
2021/06/03 03:15:58;;;;;;;11.85;6.85;;;;;;;23.07;41.14;100411.47;4482512;32;33764;-68
2021/06/03 03:18:27;;;;;;;12.13;7.05;;;;;;;23.07;41.17;100411.47;4483928;32;34482;-69
2021/06/03 03:20:55;;;;;;;11.68;6.47;;;;;;;23.06;41.16;100409.81;4483456;32;34738;-69
2021/06/03 03:23:22;;;;;;;12.73;6.43;;;;;;;23.07;41.21;100408.75;4482462;32;33557;-68
2021/06/03 03:25:52;;;;;;;11.55;6.87;;;;;;;23.06;41.28;100415.25;4483540;32;33886;-69
2021/06/03 03:28:20;;;;;;;12.13;7.05;;;;;;;23.06;41.22;100417.97;4483507;32;33837;-68
2021/06/03 03:30:48;;;;;;;11.50;6.82;;;;;;;23.07;41.18;100424.25;4483281;32;33668;-69
2021/06/03 03:33:17;;;;;;;12.70;6.93;;;;;;;23.08;41.13;100423.19;4483841;32;33215;-69
2021/06/03 03:35:46;;;;;;;14.05;7.00;;;;;;;23.08;41.10;100423.19;4482435;32;33604;-69
2021/06/03 03:38:16;;;;;;;11.40;6.60;;;;;;;23.06;41.30;100420.69;4484386;32;34657;-68
2021/06/03 03:40:48;;;;;;;14.02;6.80;;;;;;;23.05;41.33;100416.31;4485614;32;34381;-68
2021/06/03 03:43:17;;;;;;;12.43;6.50;;;;;;;23.06;41.32;100431.59;4483790;32;33062;-69
2021/06/03 03:45:45;;;;;;;12.80;6.40;;;;;;;23.07;41.26;100433.25;4485450;32;33752;-69
2021/06/03 03:48:15;;;;;;;10.85;6.20;;;;;;;23.06;41.27;100434.31;4485383;31;33881;-68
2021/06/03 03:50:43;;;;;;;12.90;6.57;;;;;;;23.06;41.22;100426.16;4483996;32;34607;-69
2021/06/03 03:53:12;;;;;;;12.90;6.12;;;;;;;23.06;41.27;100431.59;4485521;32;33337;-69
2021/06/03 03:55:41;;;;;;;12.27;6.55;;;;;;;23.04;41.29;100439.12;4483915;32;33774;-69
2021/06/03 03:58:09;;;;;;;14.13;6.70;;;;;;;23.05;41.32;100431.81;4485018;32;33555;-68
2021/06/03 04:00:37;;;;;;;12.73;5.95;;;;;;;23.05;41.29;100440.81;4485345;32;33740;-68
2021/06/03 04:03:06;;;;;;;11.88;6.45;;;;;;;23.05;41.28;100439.97;4483863;32;33122;-67
2021/06/03 04:05:35;;;;;;;13.50;6.35;;;;;;;23.05;41.25;100432.63;4484906;32;34573;-67
2021/06/03 04:08:05;;;;;;;12.50;6.32;;;;;;;23.05;41.30;100443.53;4480025;32;34718;-68
2021/06/03 04:10:32;;;;;;;11.43;5.97;;;;;;;23.06;41.26;100436.19;4483747;32;34076;-67
2021/06/03 04:13:01;;;;;;;11.20;5.82;;;;;;;23.04;41.34;100436.41;4485025;32;34950;-67
2021/06/03 04:15:29;;;;;;;10.35;5.70;;;;;;;23.04;40.77;100441.03;4485122;32;33905;-68
2021/06/03 04:17:58;;;;;;;13.38;6.05;;;;;;;23.06;41.14;100442.47;4485116;32;33778;-67
2021/06/03 04:20:26;;;;;;;11.68;5.78;;;;;;;23.06;41.15;100436.19;4484848;32;33998;-68
2021/06/03 04:22:54;;;;;;;12.48;5.93;;;;;;;23.05;41.22;100438.09;4484829;32;33378;-68
2021/06/03 04:25:25;;;;;;;11.80;5.43;;;;;;;23.06;41.30;100441.63;4485036;32;34635;-68
2021/06/03 04:27:54;;;;;;;10.32;5.22;;;;;;;23.07;41.20;100446.03;4483343;32;33990;-69
2021/06/03 04:30:23;;;;;;;12.95;5.70;;;;;;;23.05;41.17;100438.09;4468035;32;33809;-69
2021/06/03 04:32:51;;;;;;;14.10;6.30;;;;;;;23.04;41.19;100441.84;4473177;32;34188;-70
2021/06/03 04:35:20;;;;;;;9.98;5.00;;;;;;;23.05;41.12;100448.13;4483413;32;35371;-68
2021/06/03 04:37:48;;;;;;;10.07;5.03;;;;;;;23.03;41.06;100448.31;4484637;32;34690;-68
2021/06/03 04:40:18;;;;;;;10.35;4.85;;;;;;;23.04;40.98;100443.75;4484618;32;33662;-68
2021/06/03 04:42:46;;;;;;;8.45;4.45;;;;;;;23.04;40.67;100446.47;4478154;32;32966;-65
2021/06/03 04:45:14;;;;;;;17.37;5.00;;;;;;;23.03;40.65;100444.78;4468949;32;33827;-65
2021/06/03 04:47:42;;;;;;;20.55;5.72;;;;;;;23.05;40.58;100442.69;4468295;32;34676;-66
2021/06/03 04:50:14;;;;;;;14.18;5.15;;;;;;;23.03;40.54;100445.59;4467947;32;33501;-66
2021/06/03 04:52:42;;;;;;;19.02;5.68;;;;;;;23.02;40.26;100437.66;4468716;32;33307;-66
2021/06/03 04:55:19;;;;;;;17.55;6.00;;;;;;;23.02;40.32;100445.81;4475627;32;33553;-66
2021/06/03 04:57:46;;;;;;;18.65;5.35;;;;;;;23.02;40.29;100443.94;4482695;32;34601;-66
2021/06/03 05:00:20;;;;;;;14.10;5.15;;;;;;;23.01;40.37;100447.72;4484096;32;34460;-65
2021/06/03 05:02:48;;;;;;;17.92;5.25;;;;;;;23.01;40.32;100449.59;4484977;32;34103;-66
2021/06/03 05:05:15;;;;;;;14.60;5.32;;;;;;;23.01;40.28;100447.72;4483422;32;33765;-65
2021/06/03 05:07:43;;;;;;;10.50;4.40;;;;;;;23.01;40.29;100450.44;4484695;32;33648;-66
2021/06/03 05:10:11;;;;;;;16.92;4.87;;;;;;;23.01;40.20;100447.72;4484513;32;33713;-66
2021/06/03 05:12:38;;;;;;;16.17;4.75;;;;;;;23.01;40.25;100450.44;4483251;32;34239;-66
2021/06/03 05:15:07;;;;;;;14.63;5.05;;;;;;;23.01;40.18;100449.59;4482586;32;34679;-66
2021/06/03 05:17:35;;;;;;;13.30;4.68;;;;;;;23.01;40.23;100452.31;4481817;32;33983;-66
2021/06/03 05:20:08;;;;;;;10.38;4.45;;;;;;;23.00;40.23;100456.94;4482459;32;33855;-66
2021/06/03 05:22:38;;;;;;;10.95;4.05;;;;;;;23.01;40.25;100449.59;4483734;32;33395;-66
2021/06/03 05:25:08;;;;;;;12.63;4.25;;;;;;;23.00;40.15;100447.94;4482380;32;33898;-66
2021/06/03 05:27:36;;;;;;;12.95;4.37;;;;;;;23.00;40.23;100451.47;4483839;32;33971;-66
2021/06/03 05:30:04;;;;;;;11.27;4.37;;;;;;;23.00;40.17;100446.03;4484494;32;33570;-65
2021/06/03 05:32:32;;;;;;;11.35;4.28;;;;;;;22.99;40.18;100446.22;4484335;32;32984;-66
2021/06/03 05:35:00;;;;;;;8.50;4.00;;;;;;;22.99;40.10;100447.09;4484354;32;33588;-66
2021/06/03 05:37:28;;;;;;;10.23;4.10;;;;;;;23.00;40.16;100451.47;4484370;32;34028;-66
2021/06/03 05:39:55;;;;;;;13.02;4.40;;;;;;;23.00;40.16;100456.94;4484187;32;33891;-66
2021/06/03 05:42:23;;;;;;;12.18;4.30;;;;;;;23.00;40.12;100462.38;4483738;32;33200;-67
2021/06/03 05:44:51;;;;;;;12.45;4.03;;;;;;;23.01;40.14;100460.47;4483844;32;33787;-66
2021/06/03 05:47:18;;;;;;;10.57;4.55;;;;;;;22.99;40.13;100452.53;4483489;32;33933;-67
2021/06/03 05:49:47;;;;;;;13.15;4.12;;;;;;;22.99;40.13;100457.97;4484098;32;34753;-67
2021/06/03 05:52:14;;;;;;;14.40;4.20;;;;;;;23.00;40.15;100461.53;4484080;32;34271;-67
2021/06/03 05:54:42;;;;;;;10.20;3.62;;;;;;;22.99;40.11;100462.56;4484025;32;33771;-66
2021/06/03 05:57:10;;;;;;;15.25;4.00;;;;;;;22.97;40.03;100465.50;4484239;32;33771;-66
2021/06/03 05:59:37;;;;;;;9.27;4.05;;;;;;;22.98;40.12;100464.44;4479747;32;33455;-66
2021/06/03 06:02:06;;;;;;;8.38;3.80;;;;;;;22.98;40.16;100467.16;4468623;32;33239;-66
2021/06/03 06:07:20;;;;;;;9.18;3.75;;;;;;;22.98;39.99;100475.34;4468372;32;33955;-66
2021/06/03 06:09:48;;;;;;;9.55;3.83;;;;;;;22.96;40.00;100474.72;4468500;32;34531;-66
2021/06/03 06:12:16;;;;;;;8.65;3.72;;;;;;;22.97;40.04;100478.28;4468433;32;34086;-66
2021/06/03 06:14:43;;;;;;;7.55;3.78;;;;;;;22.97;39.94;100484.53;4468271;32;33815;-66
2021/06/03 06:17:11;;;;;;;8.70;4.22;;;;;;;22.98;40.04;100480.78;4481336;32;34520;-65
2021/06/03 06:19:41;;;;;;;8.32;3.90;;;;;;;22.97;40.03;100489.16;4479327;32;34450;-66
2021/06/03 06:22:08;;;;;;;10.02;3.62;;;;;;;22.98;40.01;100490.81;4483924;32;34197;-66
2021/06/03 06:24:37;;;;;;;10.32;3.50;;;;;;;22.98;39.96;100488.09;4482854;32;33613;-66
2021/06/03 06:27:05;;;;;;;7.25;3.70;;;;;;;22.96;39.97;100491.03;4484141;32;33960;-66
2021/06/03 06:29:32;;;;;;;7.22;3.53;;;;;;;22.96;39.89;100484.75;4482822;32;33523;-66
2021/06/03 06:32:00;;;;;;;7.60;3.40;;;;;;;22.96;39.96;100488.31;4484057;32;33343;-66
2021/06/03 06:34:28;;;;;;;8.63;3.20;;;;;;;22.97;39.89;100497.31;4482847;32;33905;-66
2021/06/03 06:36:55;;;;;;;8.52;3.28;;;;;;;22.95;39.92;100489.38;4483675;32;33956;-66
2021/06/03 06:39:23;;;;;;;10.75;3.78;;;;;;;22.97;39.89;100492.72;4483875;32;33770;-66
2021/06/03 06:41:52;;;;;;;8.15;3.58;;;;;;;22.95;39.86;100489.38;4483962;32;33534;-66
2021/06/03 06:44:19;;;;;;;5.82;2.95;;;;;;;22.96;39.90;100487.47;4483811;32;33809;-66
2021/06/03 06:46:47;;;;;;;6.85;3.60;;;;;;;22.96;39.75;100488.31;4483796;31;34716;-66
2021/06/03 06:49:15;;;;;;;8.20;3.15;;;;;;;22.97;39.71;100491.88;4484002;32;33635;-66
2021/06/03 06:51:42;;;;;;;8.23;2.83;;;;;;;22.97;39.67;100500.88;4483590;32;33122;-66
2021/06/03 06:54:10;;;;;;;8.30;3.00;;;;;;;22.97;39.58;100500.88;4484101;32;33818;-66
2021/06/03 06:56:38;;;;;;;5.50;2.70;;;;;;;22.95;39.51;100502.97;4483942;32;34008;-66
2021/06/03 06:59:05;;;;;;;8.02;3.03;;;;;;;22.97;39.53;100495.44;4483819;32;33476;-66
2021/06/03 07:01:33;;;;;;;8.35;3.25;;;;;;;22.97;39.54;100500.88;4484184;32;34074;-66
2021/06/03 07:04:01;;;;;;;7.62;2.90;;;;;;;22.98;39.50;100502.53;4483683;32;33773;-66
2021/06/03 07:06:29;;;;;;;9.20;2.87;;;;;;;22.98;39.30;100501.72;4483704;32;34993;-66
2021/06/03 07:08:56;;;;;;;7.07;2.90;;;;;;;22.99;39.15;100503.38;4483915;32;33855;-66
2021/06/03 07:11:24;;;;;;;6.85;2.87;;;;;;;22.99;39.11;100503.38;4483057;32;32937;-66
2021/06/03 07:14:12;;;;;;;5.93;2.53;;;;;;;23.00;39.06;100511.34;4483443;32;33770;-66
2021/06/03 07:16:39;;;;;;;7.37;3.42;;;;;;;23.02;38.92;100505.69;4483656;32;33934;-66
2021/06/03 07:19:07;;;;;;;7.68;3.15;;;;;;;23.01;38.90;100506.75;4483499;32;34391;-66
2021/06/03 07:21:35;;;;;;;5.68;2.60;;;;;;;23.03;38.77;100501.94;4483701;32;33552;-66
2021/06/03 07:24:03;;;;;;;6.00;2.83;;;;;;;23.03;38.62;100508.19;4469413;32;33852;-66
2021/06/03 07:26:30;;;;;;;8.05;2.78;;;;;;;23.04;38.44;100512.63;4483258;32;34835;-66
2021/06/03 07:29:03;;;;;;;6.72;2.80;;;;;;;23.05;38.49;100508.84;4483442;32;33930;-66
2021/06/03 07:31:35;;;;;;;6.25;3.10;;;;;;;23.07;38.45;100505.91;4483551;32;33550;-66
2021/06/03 07:34:03;;;;;;;6.68;3.05;;;;;;;23.07;38.29;100514.91;4483075;32;34818;-66
2021/06/03 07:36:32;;;;;;;4.97;2.90;;;;;;;23.07;38.19;100514.91;4482960;32;33841;-66
2021/06/03 07:39:00;;;;;;;6.37;2.58;;;;;;;23.06;37.49;100515.97;4482723;32;33881;-65
2021/06/03 07:41:28;;;;;;;5.37;2.65;;;;;;;23.08;37.71;100519.34;4481043;32;33245;-66
2021/06/03 07:43:56;;;;;;;4.45;2.37;;;;;;;23.08;37.72;100513.03;4483199;32;34687;-66
2021/06/03 07:46:24;;;;;;;4.93;2.55;;;;;;;23.09;37.84;100510.12;4483079;32;33793;-66
2021/06/03 07:48:52;;;;;;;8.30;3.08;;;;;;;23.11;38.18;100507.19;4483214;32;34786;-66
2021/06/03 07:51:19;;;;;;;4.15;2.45;;;;;;;23.13;38.11;100521.44;4483160;32;34710;-65
2021/06/03 07:53:47;;;;;;;5.53;2.95;;;;;;;23.13;37.99;100519.56;4482824;32;33729;-66
2021/06/03 07:56:15;;;;;;;9.90;3.40;;;;;;;23.14;38.01;100518.50;4482975;32;33924;-66
2021/06/03 07:58:43;;;;;;;6.90;2.70;;;;;;;23.14;37.95;100517.66;4483084;32;33843;-66
2021/06/03 08:01:11;;;;;;;7.00;2.62;;;;;;;23.15;37.84;100522.06;4482906;32;33333;-65
2021/06/03 08:03:41;;;;;;;5.20;2.55;;;;;;;23.15;37.59;100514.72;4481782;32;33646;-66
2021/06/03 08:06:09;;;;;;;5.93;3.00;;;;;;;23.14;37.57;100515.78;4482872;32;33706;-66
2021/06/03 08:08:37;;;;;;;6.75;2.70;;;;;;;23.15;37.39;100522.06;4468467;32;34611;-66
2021/06/03 08:11:05;;;;;;;10.15;2.85;;;;;;;23.14;37.45;100521.22;4482852;32;33262;-65
2021/06/03 08:13:33;;;;;;;9.23;3.00;;;;;;;23.14;37.12;100514.94;4472608;32;33966;-66
2021/06/03 08:16:00;;;;;;;5.37;2.85;;;;;;;23.13;37.17;100516.84;4467001;32;33697;-66
2021/06/03 08:18:28;;;;;;;9.13;2.80;;;;;;;23.14;37.43;100515.78;4467022;32;34024;-66
2021/06/03 08:20:59;;;;;;;4.22;2.33;;;;;;;23.15;37.28;100513.88;4465744;32;33531;-65
2021/06/03 08:23:28;;;;;;;4.93;2.40;;;;;;;23.15;37.22;100522.06;4466628;32;34689;-65
2021/06/03 08:25:56;;;;;;;8.52;2.40;;;;;;;23.14;37.43;100521.22;4469326;32;33808;-66
2021/06/03 08:28:25;;;;;;;5.40;2.90;;;;;;;23.14;37.06;100520.38;4469435;32;33878;-66
2021/06/03 08:30:54;;;;;;;7.95;3.12;;;;;;;23.14;37.34;100521.22;4468065;32;33234;-66
2021/06/03 08:33:21;;;;;;;6.18;2.70;;;;;;;23.15;37.52;100524.78;4469055;32;33870;-62
2021/06/03 08:35:49;;;;;;;6.78;2.70;;;;;;;23.16;37.05;100519.13;4484241;32;33901;-63
2021/06/03 08:38:17;;;;;;;5.90;2.60;;;;;;;23.17;36.69;100517.22;4484960;32;33834;-64
2021/06/03 08:40:48;;;;;;;5.65;2.58;;;;;;;23.19;35.85;100519.75;4484898;32;32696;-64
2021/06/03 08:43:16;;;;;;;8.77;3.00;;;;;;;23.19;35.30;100520.59;4484658;32;34559;-67
2021/06/03 08:45:44;;;;;;;6.40;2.65;;;;;;;23.22;34.28;100520.16;4484795;31;33826;-66
2021/06/03 08:48:13;;;;;;;7.07;2.70;;;;;;;23.22;33.34;100520.16;4484858;32;34906;-63
2021/06/03 08:50:44;;;;;;;6.10;2.70;;;;;;;23.25;33.40;100521.66;4484721;32;34107;-64
2021/06/03 08:53:12;;;;;;;7.55;3.00;;;;;;;23.26;33.73;100517.88;4484767;32;34544;-64
2021/06/03 08:58:26;;;;;;;6.37;3.03;;;;;;;23.33;33.54;100505.13;4484870;32;33504;-66
2021/06/03 09:00:55;;;;;;;6.03;2.42;;;;;;;23.36;33.38;100511.00;4484816;32;33239;-67
2021/06/03 09:03:24;;;;;;;7.28;2.80;;;;;;;23.36;32.84;100507.41;4484697;32;34854;-62
2021/06/03 09:05:51;;;;;;;9.10;2.80;;;;;;;23.38;32.82;100505.31;4484967;32;34800;-61
2021/06/03 09:08:21;;;;;;;6.43;2.50;;;;;;;23.42;32.73;100506.59;4484677;32;33858;-63
2021/06/03 09:10:53;;;;;;;14.23;3.35;;;;;;;23.44;32.76;100507.19;4484637;32;33413;-66
2021/06/03 09:13:31;;;;;;;8.70;3.12;;;;;;;23.48;32.74;100515.78;4484586;32;35137;-63
2021/06/03 09:16:01;;;;;;;8.13;3.03;;;;;;;23.49;32.78;100499.22;4484451;32;33818;-63
2021/06/03 09:18:41;;;;;;;7.93;3.10;;;;;;;23.50;32.74;100500.94;4484571;32;34528;-63
2021/06/03 09:21:19;;;;;;;5.43;2.70;;;;;;;23.51;32.98;100499.88;4484429;32;33308;-62
2021/06/03 09:23:58;;;;;;;6.55;3.00;;;;;;;23.54;32.43;100504.06;4484033;32;34875;-62
2021/06/03 09:26:34;;;;;;;8.55;2.97;;;;;;;23.53;32.76;100508.66;4481281;32;33829;-63
2021/06/03 09:29:05;;;;;;;5.57;2.50;;;;;;;23.55;32.98;100500.28;4484803;32;34479;-63
2021/06/03 09:31:36;;;;;;;6.78;2.80;;;;;;;23.55;32.35;100497.53;4484180;32;33404;-63
2021/06/03 09:34:20;;;;;;;8.55;3.15;;;;;;;23.55;31.84;100503.88;4483717;32;34656;-62
2021/06/03 09:36:50;;;;;;;7.30;2.70;;;;;;;23.58;31.78;100492.53;4483925;32;33917;-65
2021/06/03 09:39:18;;;;;;;6.28;3.00;;;;;;;23.60;31.98;100500.50;4483954;32;35152;-68
2021/06/03 09:42:07;;;;;;;5.97;2.75;;;;;;;23.60;32.15;100501.34;4484210;32;34308;-69
2021/06/03 09:44:56;;;;;;;9.40;3.30;;;;;;;23.61;32.00;100502.19;4484423;32;33368;-69
2021/06/03 09:47:34;;;;;;;8.93;2.22;;;;;;;23.63;32.39;100500.91;4484150;32;33598;-68
2021/06/03 09:50:02;;;;;;;11.07;3.05;;;;;;;23.61;32.63;100491.28;4484506;32;33245;-69
2021/06/03 09:52:34;;;;;;;8.80;3.67;;;;;;;23.59;32.83;100502.38;4484168;32;33251;-69
2021/06/03 09:55:08;;;;;;;5.62;2.70;;;;;;;23.56;32.91;100499.25;4483940;32;33941;-68
2021/06/03 09:57:39;;;;;;;6.50;2.80;;;;;;;23.54;33.08;100494.00;4483111;32;34698;-68
2021/06/03 10:00:07;;;;;;;7.60;3.17;;;;;;;23.53;33.38;100489.59;4482861;32;33977;-68
2021/06/03 10:02:38;;;;;;;6.72;2.85;;;;;;;23.52;33.48;100487.94;4484050;32;33198;-68
2021/06/03 10:05:15;;;;;;;6.43;2.58;;;;;;;23.52;33.64;100487.94;4470260;32;34757;-68
2021/06/03 10:07:53;;;;;;;7.90;2.75;;;;;;;23.50;33.66;100484.59;4484315;32;33629;-69
2021/06/03 10:10:21;;;;;;;7.40;2.45;;;;;;;23.50;33.70;100481.00;4483078;32;33720;-68
2021/06/03 10:12:49;;;;;;;5.87;2.90;;;;;;;23.48;33.75;100483.12;4483681;32;33413;-68
2021/06/03 10:15:20;;;;;;;5.68;2.40;;;;;;;23.48;33.62;100478.50;4484257;32;34510;-68
2021/06/03 10:18:00;;;;;;;8.60;3.05;;;;;;;23.46;33.99;100475.16;4482913;32;32729;-68
2021/06/03 10:20:33;;;;;;;6.18;2.72;;;;;;;23.45;33.95;100472.62;4483028;32;33874;-68
2021/06/03 10:23:01;;;;;;;5.90;2.65;;;;;;;23.46;34.20;100471.59;4483927;32;34043;-68
2021/06/03 10:25:32;;;;;;;;;;;;;;;23.44;34.34;100469.06;4483388;32;34701;-69
2021/06/03 10:28:07;;;;;;;4.75;2.62;;;;;;;23.54;34.18;100464.03;4484214;32;34034;-68
2021/06/03 10:30:40;;;;;;;9.93;2.80;;;;;;;23.45;34.38;100464.47;4483472;32;33760;-68
2021/06/03 10:33:12;;;;;;;7.45;2.70;;;;;;;23.41;34.48;100467.63;4484138;32;34204;-68
2021/06/03 10:35:43;;;;;;;5.43;2.40;;;;;;;23.39;34.65;100455.25;4483777;32;33885;-68
2021/06/03 10:38:10;;;;;;;7.35;2.40;;;;;;;23.40;34.64;100462.38;4483958;32;34565;-69
2021/06/03 10:40:41;;;;;;;6.97;2.92;;;;;;;23.40;34.57;100448.75;4483810;32;33504;-68
2021/06/03 10:43:09;;;;;;;6.68;2.50;;;;;;;23.39;34.67;100447.91;4483953;32;34238;-68
2021/06/03 10:45:37;;;;;;;5.62;2.85;;;;;;;23.40;34.91;100449.59;4483126;32;33942;-68
2021/06/03 10:48:06;;;;;;;7.93;2.97;;;;;;;23.39;35.11;100450.63;4482825;32;34426;-68
2021/06/03 10:50:39;;;;;;;7.85;2.78;;;;;;;23.39;35.23;100447.91;4482025;32;34045;-68
2021/06/03 10:53:09;;;;;;;5.95;2.33;;;;;;;23.39;35.17;100444.34;4482672;32;33589;-68
2021/06/03 10:55:45;;;;;;;6.22;2.58;;;;;;;23.39;35.26;100455.25;4483410;32;34774;-68
2021/06/03 10:58:13;;;;;;;6.55;2.80;;;;;;;23.41;35.21;100450.44;4483906;32;33805;-68
2021/06/03 11:00:45;;;;;;;7.72;2.70;;;;;;;23.39;35.25;100444.34;4469783;32;34495;-68
2021/06/03 11:03:24;;;;;;;8.05;2.50;;;;;;;23.40;35.37;100452.31;4483667;32;33889;-69
2021/06/03 11:06:01;;;;;;;6.07;2.47;;;;;;;23.40;35.56;100454.19;4475318;32;33558;-67
2021/06/03 11:08:30;;;;;;;7.25;2.80;;;;;;;23.39;35.55;100453.34;4479736;32;34561;-67
2021/06/03 11:11:12;;;;;;;6.87;2.85;;;;;;;23.39;35.66;100449.81;4483763;32;34950;-67
2021/06/03 11:14:00;;;;;;;5.72;2.60;;;;;;;23.40;35.62;100443.31;4483326;32;34091;-67
2021/06/03 11:16:34;;;;;;;6.37;2.80;;;;;;;23.41;35.75;100447.72;4482464;32;35025;-67
2021/06/03 11:19:01;;;;;;;4.72;2.62;;;;;;;23.40;35.89;100443.31;4483517;32;33590;-67
2021/06/03 11:21:32;;;;;;;6.35;2.58;;;;;;;23.39;35.93;100444.34;4483739;32;34501;-67
2021/06/03 11:24:00;;;;;;;6.25;2.15;;;;;;;23.38;36.00;100438.06;4483456;32;33413;-67
2021/06/03 11:26:36;;;;;;;6.70;2.70;;;;;;;23.38;35.90;100442.69;4483577;32;34701;-67
2021/06/03 11:29:14;;;;;;;7.93;2.47;;;;;;;23.39;35.90;100437.03;4483393;32;33549;-67
2021/06/03 11:31:43;;;;;;;5.95;2.70;;;;;;;23.39;35.91;100437.03;4483248;32;33796;-67
2021/06/03 11:34:21;;;;;;;5.47;2.45;;;;;;;23.37;36.00;100439.12;4483389;32;33261;-67
2021/06/03 11:37:00;;;;;;;6.87;2.72;;;;;;;23.39;36.12;100425.28;4483224;32;34602;-68
2021/06/03 11:39:31;;;;;;;5.12;2.95;;;;;;;23.39;36.14;100437.03;4483433;32;33443;-67